createdAt,value
2018-05-09T00:00:14.793Z,0
2018-05-09T00:00:40.980Z,0
2018-05-09T00:01:07.150Z,0
2018-05-09T00:01:33.287Z,0
2018-05-09T00:01:59.458Z,0
2018-05-09T00:02:25.594Z,0
2018-05-09T00:02:51.735Z,0
2018-05-09T00:03:17.875Z,0
2018-05-09T00:03:44.029Z,0
2018-05-09T00:04:10.162Z,0
2018-05-09T00:04:36.301Z,0
2018-05-09T00:05:02.443Z,0
2018-05-09T00:05:28.669Z,0
2018-05-09T00:05:54.724Z,0
2018-05-09T00:06:20.897Z,0
2018-05-09T00:06:47.034Z,0
2018-05-09T00:07:13.177Z,0
2018-05-09T00:07:39.313Z,0
2018-05-09T00:08:05.445Z,0
2018-05-09T00:08:31.585Z,0
2018-05-09T00:08:57.725Z,0
2018-05-09T00:09:23.889Z,0
2018-05-09T00:09:50.027Z,0
2018-05-09T00:10:16.194Z,0
2018-05-09T00:10:42.364Z,0
2018-05-09T00:11:08.501Z,0
2018-05-09T00:11:34.645Z,0
2018-05-09T00:12:00.834Z,0
2018-05-09T00:12:26.951Z,0
2018-05-09T00:12:53.092Z,0
2018-05-09T00:13:19.284Z,0
2018-05-09T00:13:45.400Z,0
2018-05-09T00:14:11.538Z,0
2018-05-09T00:14:37.702Z,0
2018-05-09T00:15:03.844Z,0
2018-05-09T00:15:29.979Z,0
2018-05-09T00:15:56.144Z,0
2018-05-09T00:16:22.284Z,0
2018-05-09T00:16:48.431Z,0
2018-05-09T00:17:14.588Z,0
2018-05-09T00:17:40.733Z,0
2018-05-09T00:18:06.888Z,0
2018-05-09T00:18:33.029Z,0
2018-05-09T00:18:59.169Z,0
2018-05-09T00:19:25.341Z,0
2018-05-09T00:19:51.457Z,0
2018-05-09T00:20:17.617Z,0
2018-05-09T00:20:43.763Z,0
2018-05-09T00:21:09.922Z,0
2018-05-09T00:21:36.088Z,0
2018-05-09T00:22:02.247Z,0
2018-05-09T00:22:28.383Z,0
2018-05-09T00:22:54.540Z,0
2018-05-09T00:23:20.685Z,0
2018-05-09T00:23:46.842Z,0
2018-05-09T00:24:13.038Z,0
2018-05-09T00:24:39.181Z,0
2018-05-09T00:25:05.320Z,0
2018-05-09T00:25:31.491Z,0
2018-05-09T00:25:57.629Z,0
2018-05-09T00:26:23.765Z,0
2018-05-09T00:26:49.926Z,0
2018-05-09T00:27:16.085Z,0
2018-05-09T00:27:42.227Z,0
2018-05-09T00:28:08.372Z,0
2018-05-09T00:28:34.514Z,0
2018-05-09T00:29:00.659Z,0
2018-05-09T00:29:26.798Z,0
2018-05-09T00:29:52.934Z,0
2018-05-09T00:30:19.078Z,0
2018-05-09T00:30:45.226Z,0
2018-05-09T00:31:11.387Z,0
2018-05-09T00:31:37.550Z,0
2018-05-09T00:32:03.690Z,0
2018-05-09T00:32:29.862Z,0
2018-05-09T00:32:55.999Z,0
2018-05-09T00:33:22.142Z,0
2018-05-09T00:33:48.283Z,0
2018-05-09T00:34:14.453Z,0
2018-05-09T00:34:40.591Z,0
2018-05-09T00:35:06.754Z,0
2018-05-09T00:35:32.896Z,0
2018-05-09T00:35:59.039Z,0
2018-05-09T00:36:25.177Z,0
2018-05-09T00:36:51.314Z,0
2018-05-09T00:37:17.449Z,0
2018-05-09T00:37:43.587Z,0
2018-05-09T00:38:09.725Z,0
2018-05-09T00:38:35.867Z,0
2018-05-09T00:39:02.015Z,0
2018-05-09T00:39:28.155Z,0
2018-05-09T00:39:54.315Z,0
2018-05-09T00:40:20.455Z,0
2018-05-09T00:40:46.587Z,0
2018-05-09T00:41:12.724Z,0
2018-05-09T00:41:38.883Z,0
2018-05-09T00:42:05.031Z,0
2018-05-09T00:42:31.173Z,0
2018-05-09T00:42:57.308Z,0
2018-05-09T00:43:23.461Z,0
2018-05-09T00:43:49.591Z,0
2018-05-09T00:44:15.734Z,0
2018-05-09T00:44:41.873Z,0
2018-05-09T00:45:08.046Z,0
2018-05-09T00:45:34.181Z,0
2018-05-09T00:46:00.320Z,0
2018-05-09T00:46:26.456Z,0
2018-05-09T00:46:52.622Z,0
2018-05-09T00:47:18.755Z,0
2018-05-09T00:47:44.943Z,0
2018-05-09T00:48:11.114Z,0
2018-05-09T00:48:37.272Z,0
2018-05-09T00:49:03.413Z,0
2018-05-09T00:49:29.570Z,0
2018-05-09T00:49:55.715Z,0
2018-05-09T00:50:21.852Z,0
2018-05-09T00:50:48.020Z,0
2018-05-09T00:51:14.155Z,0
2018-05-09T00:51:40.289Z,0
2018-05-09T00:52:06.434Z,0
2018-05-09T00:52:32.571Z,0
2018-05-09T00:52:58.712Z,0
2018-05-09T00:53:24.860Z,0
2018-05-09T00:53:51.017Z,0
2018-05-09T00:54:17.150Z,0
2018-05-09T00:54:43.295Z,0
2018-05-09T00:55:09.438Z,0
2018-05-09T00:55:35.584Z,0
2018-05-09T00:56:01.718Z,0
2018-05-09T00:56:27.884Z,0
2018-05-09T00:56:54.026Z,0
2018-05-09T00:57:20.161Z,0
2018-05-09T00:57:46.395Z,0
2018-05-09T00:58:12.461Z,0
2018-05-09T00:58:38.600Z,0
2018-05-09T00:59:04.746Z,0
2018-05-09T00:59:30.887Z,0
2018-05-09T00:59:57.023Z,0
2018-05-09T01:00:23.183Z,0
2018-05-09T01:00:49.316Z,0
2018-05-09T01:01:15.457Z,0
2018-05-09T01:01:41.646Z,0
2018-05-09T01:02:07.786Z,0
2018-05-09T01:02:33.924Z,0
2018-05-09T01:03:00.061Z,0
2018-05-09T01:03:26.203Z,0
2018-05-09T01:03:52.342Z,0
2018-05-09T01:04:18.480Z,0
2018-05-09T01:04:44.626Z,0
2018-05-09T01:05:10.767Z,0
2018-05-09T01:05:36.912Z,0
2018-05-09T01:06:03.071Z,0
2018-05-09T01:06:29.212Z,0
2018-05-09T01:06:55.350Z,0
2018-05-09T01:07:21.507Z,0
2018-05-09T01:07:47.649Z,0
2018-05-09T01:08:13.789Z,0
2018-05-09T01:08:39.931Z,0
2018-05-09T01:09:06.072Z,0
2018-05-09T01:09:32.209Z,0
2018-05-09T01:09:58.366Z,0
2018-05-09T01:10:24.509Z,0
2018-05-09T01:10:50.641Z,0
2018-05-09T01:11:16.785Z,0
2018-05-09T01:11:42.924Z,0
2018-05-09T01:12:09.084Z,0
2018-05-09T01:12:35.281Z,0
2018-05-09T01:13:01.449Z,0
2018-05-09T01:13:27.606Z,0
2018-05-09T01:13:53.744Z,0
2018-05-09T01:14:19.878Z,0
2018-05-09T01:14:46.030Z,0
2018-05-09T01:15:12.158Z,0
2018-05-09T01:15:38.351Z,0
2018-05-09T01:16:04.493Z,0
2018-05-09T01:16:30.636Z,0
2018-05-09T01:16:56.771Z,0
2018-05-09T01:17:22.942Z,0
2018-05-09T01:17:49.103Z,0
2018-05-09T01:18:15.273Z,0
2018-05-09T01:18:41.408Z,0
2018-05-09T01:19:07.548Z,0
2018-05-09T01:19:33.692Z,0
2018-05-09T01:19:59.858Z,0
2018-05-09T01:20:25.988Z,0
2018-05-09T01:20:52.125Z,0
2018-05-09T01:21:18.287Z,0
2018-05-09T01:21:44.424Z,0
2018-05-09T01:22:10.564Z,0
2018-05-09T01:22:36.702Z,0
2018-05-09T01:23:02.865Z,0
2018-05-09T01:23:29.027Z,0
2018-05-09T01:23:55.193Z,0
2018-05-09T01:24:21.330Z,0
2018-05-09T01:24:47.469Z,0
2018-05-09T01:25:13.608Z,0
2018-05-09T01:25:39.737Z,0
2018-05-09T01:26:05.882Z,0
2018-05-09T01:26:32.022Z,0
2018-05-09T01:26:58.187Z,0
2018-05-09T01:27:24.349Z,0
2018-05-09T01:27:50.487Z,0
2018-05-09T01:28:16.631Z,0
2018-05-09T01:28:42.790Z,0
2018-05-09T01:29:08.950Z,0
2018-05-09T01:29:35.091Z,0
2018-05-09T01:30:01.225Z,0
2018-05-09T01:30:27.368Z,0
2018-05-09T01:30:53.507Z,0
2018-05-09T01:31:19.673Z,0
2018-05-09T01:31:45.849Z,0
2018-05-09T01:32:11.985Z,0
2018-05-09T01:32:38.132Z,0
2018-05-09T01:33:04.269Z,0
2018-05-09T01:33:30.409Z,0
2018-05-09T01:33:56.545Z,0
2018-05-09T01:34:22.685Z,0
2018-05-09T01:34:48.825Z,0
2018-05-09T01:35:14.970Z,0
2018-05-09T01:35:41.104Z,0
2018-05-09T01:36:07.249Z,0
2018-05-09T01:36:33.408Z,0
2018-05-09T01:36:59.572Z,0
2018-05-09T01:37:25.711Z,0
2018-05-09T01:37:51.848Z,0
2018-05-09T01:38:18.015Z,0
2018-05-09T01:38:44.153Z,0
2018-05-09T01:39:10.318Z,0
2018-05-09T01:39:36.483Z,0
2018-05-09T01:40:02.645Z,0
2018-05-09T01:40:28.792Z,0
2018-05-09T01:40:54.928Z,0
2018-05-09T01:41:21.067Z,0
2018-05-09T01:41:47.230Z,0
2018-05-09T01:42:13.370Z,0
2018-05-09T01:42:39.531Z,0
2018-05-09T01:43:05.668Z,0
2018-05-09T01:43:31.811Z,0
2018-05-09T01:43:57.979Z,0
2018-05-09T01:44:24.166Z,0
2018-05-09T01:44:50.323Z,0
2018-05-09T01:45:16.463Z,0
2018-05-09T01:45:42.607Z,0
2018-05-09T01:46:08.748Z,0
2018-05-09T01:46:34.904Z,0
2018-05-09T01:47:01.048Z,0
2018-05-09T01:47:27.185Z,0
2018-05-09T01:47:53.330Z,0
2018-05-09T01:48:19.500Z,0
2018-05-09T01:48:45.641Z,0
2018-05-09T01:49:11.783Z,0
2018-05-09T01:49:37.916Z,0
2018-05-09T01:50:04.051Z,0
2018-05-09T01:50:30.196Z,0
2018-05-09T01:50:56.329Z,0
2018-05-09T01:51:22.500Z,0
2018-05-09T01:51:48.633Z,0
2018-05-09T01:52:14.773Z,0
2018-05-09T01:52:40.920Z,0
2018-05-09T01:53:07.062Z,0
2018-05-09T01:53:33.208Z,0
2018-05-09T01:53:59.379Z,0
2018-05-09T01:54:25.589Z,0
2018-05-09T01:54:51.724Z,0
2018-05-09T01:55:17.814Z,0
2018-05-09T01:55:43.951Z,0
2018-05-09T01:56:10.091Z,0
2018-05-09T01:56:36.259Z,0
2018-05-09T01:57:02.410Z,0
2018-05-09T01:57:28.547Z,0
2018-05-09T01:57:54.678Z,0
2018-05-09T01:58:20.825Z,0
2018-05-09T01:58:46.963Z,0
2018-05-09T01:59:13.093Z,0
2018-05-09T01:59:39.231Z,0
2018-05-09T02:00:05.394Z,0
2018-05-09T02:00:31.533Z,0
2018-05-09T02:00:57.674Z,0
2018-05-09T02:01:23.814Z,0
2018-05-09T02:01:49.951Z,0
2018-05-09T02:02:16.087Z,0
2018-05-09T02:02:42.230Z,0
2018-05-09T02:03:08.365Z,0
2018-05-09T02:03:34.502Z,0
2018-05-09T02:04:00.683Z,0
2018-05-09T02:04:26.821Z,0
2018-05-09T02:04:52.958Z,0
2018-05-09T02:05:19.104Z,0
2018-05-09T02:05:45.240Z,0
2018-05-09T02:06:11.407Z,0
2018-05-09T02:06:37.517Z,0
2018-05-09T02:07:03.657Z,0
2018-05-09T02:07:29.794Z,0
2018-05-09T02:07:55.933Z,0
2018-05-09T02:08:22.074Z,0
2018-05-09T02:08:48.210Z,0
2018-05-09T02:09:14.343Z,0
2018-05-09T02:09:40.485Z,0
2018-05-09T02:10:06.624Z,0
2018-05-09T02:10:32.762Z,0
2018-05-09T02:10:58.906Z,0
2018-05-09T02:11:25.046Z,0
2018-05-09T02:11:51.181Z,0
2018-05-09T02:12:17.324Z,0
2018-05-09T02:12:43.460Z,0
2018-05-09T02:13:09.606Z,0
2018-05-09T02:13:35.747Z,0
2018-05-09T02:14:01.886Z,0
2018-05-09T02:14:28.052Z,0
2018-05-09T02:14:54.183Z,0
2018-05-09T02:15:20.346Z,0
2018-05-09T02:15:46.489Z,0
2018-05-09T02:16:12.651Z,0
2018-05-09T02:16:38.793Z,0
2018-05-09T02:17:04.937Z,0
2018-05-09T02:17:31.095Z,0
2018-05-09T02:17:57.209Z,0
2018-05-09T02:18:23.353Z,0
2018-05-09T02:18:49.507Z,0
2018-05-09T02:19:15.670Z,0
2018-05-09T02:19:41.832Z,0
2018-05-09T02:20:07.971Z,0
2018-05-09T02:20:34.112Z,0
2018-05-09T02:21:00.262Z,0
2018-05-09T02:21:26.407Z,0
2018-05-09T02:21:52.542Z,0
2018-05-09T02:22:18.686Z,0
2018-05-09T02:22:44.821Z,0
2018-05-09T02:23:10.979Z,0
2018-05-09T02:23:37.119Z,0
2018-05-09T02:24:03.355Z,0
2018-05-09T02:24:29.404Z,0
2018-05-09T02:24:55.547Z,0
2018-05-09T02:25:21.736Z,0
2018-05-09T02:25:47.896Z,0
2018-05-09T02:26:14.038Z,0
2018-05-09T02:26:40.194Z,0
2018-05-09T02:27:06.336Z,0
2018-05-09T02:27:32.492Z,0
2018-05-09T02:27:58.639Z,0
2018-05-09T02:28:24.804Z,0
2018-05-09T02:28:50.970Z,0
2018-05-09T02:29:17.103Z,0
2018-05-09T02:29:43.249Z,0
2018-05-09T02:30:09.409Z,0
2018-05-09T02:30:35.576Z,0
2018-05-09T02:31:01.766Z,0
2018-05-09T02:31:27.867Z,0
2018-05-09T02:31:54.025Z,0
2018-05-09T02:32:20.169Z,0
2018-05-09T02:32:46.305Z,0
2018-05-09T02:33:12.464Z,0
2018-05-09T02:33:38.660Z,0
2018-05-09T02:34:04.843Z,0
2018-05-09T02:34:31.034Z,0
2018-05-09T02:34:57.187Z,0
2018-05-09T02:35:23.330Z,0
2018-05-09T02:35:49.467Z,0
2018-05-09T02:36:15.632Z,0
2018-05-09T02:36:41.797Z,0
2018-05-09T02:37:07.988Z,0
2018-05-09T02:37:34.142Z,0
2018-05-09T02:38:00.317Z,0
2018-05-09T02:38:26.481Z,0
2018-05-09T02:38:52.625Z,0
2018-05-09T02:39:18.782Z,0
2018-05-09T02:39:44.914Z,0
2018-05-09T02:40:11.082Z,0
2018-05-09T02:40:37.247Z,0
2018-05-09T02:41:03.431Z,0
2018-05-09T02:41:29.593Z,0
2018-05-09T02:41:55.766Z,0
2018-05-09T02:42:21.910Z,0
2018-05-09T02:42:48.093Z,0
2018-05-09T02:43:14.230Z,0
2018-05-09T02:43:40.475Z,0
2018-05-09T02:44:06.527Z,0
2018-05-09T02:44:32.703Z,0
2018-05-09T02:44:58.867Z,0
2018-05-09T02:45:25.055Z,0
2018-05-09T02:45:51.248Z,0
2018-05-09T02:46:17.433Z,0
2018-05-09T02:46:43.596Z,0
2018-05-09T02:47:09.781Z,0
2018-05-09T02:47:35.992Z,0
2018-05-09T02:48:02.158Z,0
2018-05-09T02:48:28.311Z,0
2018-05-09T02:48:54.472Z,0
2018-05-09T02:49:20.631Z,0
2018-05-09T02:49:46.838Z,0
2018-05-09T02:50:12.947Z,0
2018-05-09T02:50:39.089Z,0
2018-05-09T02:51:05.268Z,0
2018-05-09T02:51:31.436Z,0
2018-05-09T02:51:57.579Z,0
2018-05-09T02:52:23.743Z,0
2018-05-09T02:52:49.882Z,0
2018-05-09T02:53:16.021Z,0
2018-05-09T02:53:42.185Z,0
2018-05-09T02:54:08.322Z,0
2018-05-09T02:54:34.487Z,0
2018-05-09T02:55:00.621Z,0
2018-05-09T02:55:26.762Z,0
2018-05-09T02:55:52.917Z,0
2018-05-09T02:56:19.087Z,0
2018-05-09T02:56:45.229Z,0
2018-05-09T02:57:11.389Z,0
2018-05-09T02:57:37.547Z,0
2018-05-09T02:58:03.708Z,0
2018-05-09T02:58:29.854Z,0
2018-05-09T02:58:56.075Z,0
2018-05-09T02:59:22.213Z,0
2018-05-09T02:59:48.371Z,0
2018-05-09T03:00:14.527Z,0
2018-05-09T03:00:40.693Z,0
2018-05-09T03:01:06.835Z,0
2018-05-09T03:01:32.976Z,0
2018-05-09T03:01:59.118Z,0
2018-05-09T03:02:25.256Z,0
2018-05-09T03:02:51.391Z,0
2018-05-09T03:03:17.523Z,0
2018-05-09T03:03:43.714Z,0
2018-05-09T03:04:09.870Z,4
2018-05-09T03:04:36.027Z,4
2018-05-09T03:05:02.182Z,4
2018-05-09T03:05:28.326Z,4
2018-05-09T03:05:54.466Z,4
2018-05-09T03:06:20.648Z,4
2018-05-09T03:06:46.792Z,0
2018-05-09T03:07:12.944Z,0
2018-05-09T03:07:39.112Z,0
2018-05-09T03:08:05.272Z,4
2018-05-09T03:08:31.426Z,4
2018-05-09T03:08:57.605Z,4
2018-05-09T03:09:23.746Z,4
2018-05-09T03:09:49.898Z,0
2018-05-09T03:10:16.063Z,4
2018-05-09T03:10:42.219Z,4
2018-05-09T03:11:08.357Z,4
2018-05-09T03:11:34.520Z,4
2018-05-09T03:12:00.683Z,4
2018-05-09T03:12:26.871Z,4
2018-05-09T03:12:53.009Z,4
2018-05-09T03:13:19.168Z,8
2018-05-09T03:13:45.313Z,4
2018-05-09T03:14:11.443Z,8
2018-05-09T03:14:37.635Z,8
2018-05-09T03:15:03.778Z,8
2018-05-09T03:15:29.910Z,8
2018-05-09T03:15:56.049Z,12
2018-05-09T03:16:22.207Z,8
2018-05-09T03:16:48.354Z,12
2018-05-09T03:17:14.493Z,8
2018-05-09T03:17:40.632Z,12
2018-05-09T03:18:06.766Z,12
2018-05-09T03:18:32.910Z,16
2018-05-09T03:18:59.069Z,16
2018-05-09T03:19:25.213Z,12
2018-05-09T03:19:51.340Z,16
2018-05-09T03:20:17.510Z,16
2018-05-09T03:20:43.669Z,16
2018-05-09T03:21:09.835Z,16
2018-05-09T03:21:35.996Z,24
2018-05-09T03:22:02.148Z,24
2018-05-09T03:22:28.271Z,24
2018-05-09T03:22:54.414Z,24
2018-05-09T03:23:20.579Z,28
2018-05-09T03:23:46.721Z,28
2018-05-09T03:24:12.867Z,32
2018-05-09T03:24:39.007Z,36
2018-05-09T03:25:05.149Z,32
2018-05-09T03:25:31.318Z,36
2018-05-09T03:25:57.481Z,40
2018-05-09T03:26:23.619Z,40
2018-05-09T03:26:49.761Z,44
2018-05-09T03:27:15.904Z,44
2018-05-09T03:27:42.041Z,48
2018-05-09T03:28:08.177Z,52
2018-05-09T03:28:34.322Z,52
2018-05-09T03:29:00.458Z,60
2018-05-09T03:29:26.586Z,60
2018-05-09T03:29:52.815Z,64
2018-05-09T03:30:18.908Z,68
2018-05-09T03:30:45.102Z,72
2018-05-09T03:31:11.245Z,76
2018-05-09T03:31:37.429Z,80
2018-05-09T03:32:03.589Z,84
2018-05-09T03:32:29.746Z,88
2018-05-09T03:32:55.909Z,92
2018-05-09T03:33:22.048Z,100
2018-05-09T03:33:48.194Z,104
2018-05-09T03:34:14.330Z,108
2018-05-09T03:34:40.511Z,116
2018-05-09T03:35:06.652Z,120
2018-05-09T03:35:32.791Z,128
2018-05-09T03:35:58.930Z,132
2018-05-09T03:36:25.069Z,140
2018-05-09T03:36:51.227Z,148
2018-05-09T03:37:17.363Z,152
2018-05-09T03:37:43.531Z,160
2018-05-09T03:38:09.666Z,164
2018-05-09T03:38:35.809Z,172
2018-05-09T03:39:01.948Z,180
2018-05-09T03:39:28.112Z,192
2018-05-09T03:39:54.246Z,200
2018-05-09T03:40:20.389Z,208
2018-05-09T03:40:46.528Z,216
2018-05-09T03:41:12.703Z,224
2018-05-09T03:41:38.838Z,236
2018-05-09T03:42:05.002Z,244
2018-05-09T03:42:31.170Z,252
2018-05-09T03:42:57.308Z,264
2018-05-09T03:43:23.446Z,272
2018-05-09T03:43:49.608Z,284
2018-05-09T03:44:15.764Z,296
2018-05-09T03:44:41.915Z,308
2018-05-09T03:45:08.055Z,316
2018-05-09T03:45:34.189Z,332
2018-05-09T03:46:00.333Z,340
2018-05-09T03:46:26.467Z,352
2018-05-09T03:46:52.609Z,364
2018-05-09T03:47:18.743Z,380
2018-05-09T03:47:44.881Z,392
2018-05-09T03:48:11.022Z,408
2018-05-09T03:48:37.161Z,420
2018-05-09T03:49:03.328Z,432
2018-05-09T03:49:29.469Z,448
2018-05-09T03:49:55.605Z,464
2018-05-09T03:50:21.738Z,476
2018-05-09T03:50:47.885Z,496
2018-05-09T03:51:14.021Z,512
2018-05-09T03:51:40.156Z,528
2018-05-09T03:52:06.300Z,540
2018-05-09T03:52:32.436Z,560
2018-05-09T03:52:58.588Z,576
2018-05-09T03:53:24.754Z,592
2018-05-09T03:53:50.870Z,608
2018-05-09T03:54:17.009Z,628
2018-05-09T03:54:43.155Z,648
2018-05-09T03:55:09.298Z,664
2018-05-09T03:55:35.449Z,688
2018-05-09T03:56:01.631Z,704
2018-05-09T03:56:27.768Z,724
2018-05-09T03:56:53.910Z,744
2018-05-09T03:57:20.051Z,764
2018-05-09T03:57:46.191Z,784
2018-05-09T03:58:12.330Z,808
2018-05-09T03:58:38.470Z,828
2018-05-09T03:59:04.612Z,848
2018-05-09T03:59:30.749Z,872
2018-05-09T03:59:56.929Z,892
2018-05-09T04:00:23.059Z,916
2018-05-09T04:00:49.186Z,936
2018-05-09T04:01:15.332Z,964
2018-05-09T04:01:41.496Z,984
2018-05-09T04:02:07.653Z,1008
2018-05-09T04:02:33.789Z,1032
2018-05-09T04:02:59.943Z,1056
2018-05-09T04:03:26.095Z,1080
2018-05-09T04:03:52.235Z,1104
2018-05-09T04:04:18.368Z,1128
2018-05-09T04:04:44.511Z,1152
2018-05-09T04:05:10.648Z,1176
2018-05-09T04:05:36.785Z,1200
2018-05-09T04:06:02.933Z,1232
2018-05-09T04:06:29.093Z,1252
2018-05-09T04:06:55.240Z,1280
2018-05-09T04:07:21.386Z,1304
2018-05-09T04:07:47.512Z,1332
2018-05-09T04:08:13.675Z,1360
2018-05-09T04:08:39.838Z,1384
2018-05-09T04:09:05.978Z,1412
2018-05-09T04:09:32.219Z,1440
2018-05-09T04:09:58.278Z,1464
2018-05-09T04:10:24.411Z,1492
2018-05-09T04:10:50.552Z,1520
2018-05-09T04:11:16.726Z,1548
2018-05-09T04:11:42.837Z,1576
2018-05-09T04:12:08.969Z,1600
2018-05-09T04:12:35.107Z,1632
2018-05-09T04:13:01.278Z,1660
2018-05-09T04:13:27.441Z,1684
2018-05-09T04:13:53.642Z,1716
2018-05-09T04:14:19.776Z,1744
2018-05-09T04:14:45.934Z,1772
2018-05-09T04:15:12.053Z,1800
2018-05-09T04:15:38.196Z,1828
2018-05-09T04:16:04.355Z,1856
2018-05-09T04:16:30.501Z,1884
2018-05-09T04:16:56.669Z,1912
2018-05-09T04:17:22.816Z,1940
2018-05-09T04:17:48.957Z,1972
2018-05-09T04:18:15.099Z,2000
2018-05-09T04:18:41.232Z,2032
2018-05-09T04:19:07.365Z,2060
2018-05-09T04:19:33.506Z,2092
2018-05-09T04:19:59.640Z,2120
2018-05-09T04:20:25.784Z,2152
2018-05-09T04:20:52.035Z,2176
2018-05-09T04:21:18.111Z,2208
2018-05-09T04:21:44.250Z,2240
2018-05-09T04:22:10.389Z,2268
2018-05-09T04:22:36.555Z,2296
2018-05-09T04:23:02.688Z,2328
2018-05-09T04:23:28.830Z,2356
2018-05-09T04:23:54.967Z,2388
2018-05-09T04:24:21.129Z,2416
2018-05-09T04:24:47.286Z,2444
2018-05-09T04:25:13.426Z,2472
2018-05-09T04:25:39.569Z,2504
2018-05-09T04:26:05.707Z,2536
2018-05-09T04:26:31.843Z,2564
2018-05-09T04:26:57.988Z,2592
2018-05-09T04:27:24.125Z,2624
2018-05-09T04:27:50.266Z,2652
2018-05-09T04:28:16.541Z,2676
2018-05-09T04:28:42.563Z,2712
2018-05-09T04:29:08.701Z,2736
2018-05-09T04:29:34.871Z,2768
2018-05-09T04:30:01.035Z,2800
2018-05-09T04:30:27.198Z,2824
2018-05-09T04:30:53.343Z,2856
2018-05-09T04:31:19.506Z,2884
2018-05-09T04:31:45.651Z,2912
2018-05-09T04:32:11.786Z,2944
2018-05-09T04:32:37.928Z,2972
2018-05-09T04:33:04.070Z,3000
2018-05-09T04:33:30.208Z,3032
2018-05-09T04:33:56.351Z,3064
2018-05-09T04:34:22.513Z,3092
2018-05-09T04:34:48.648Z,3124
2018-05-09T04:35:14.814Z,3152
2018-05-09T04:35:40.949Z,3184
2018-05-09T04:36:07.093Z,3216
2018-05-09T04:36:33.252Z,3248
2018-05-09T04:36:59.390Z,3280
2018-05-09T04:37:25.542Z,3312
2018-05-09T04:37:51.675Z,3344
2018-05-09T04:38:17.808Z,3376
2018-05-09T04:38:43.993Z,3412
2018-05-09T04:39:10.139Z,3444
2018-05-09T04:39:36.273Z,3480
2018-05-09T04:40:02.409Z,3508
2018-05-09T04:40:28.552Z,3544
2018-05-09T04:40:54.703Z,3576
2018-05-09T04:41:20.899Z,3604
2018-05-09T04:41:47.063Z,3636
2018-05-09T04:42:13.233Z,3668
2018-05-09T04:42:39.367Z,3700
2018-05-09T04:43:05.512Z,3728
2018-05-09T04:43:31.658Z,3760
2018-05-09T04:43:57.794Z,3792
2018-05-09T04:44:23.938Z,3816
2018-05-09T04:44:50.082Z,3844
2018-05-09T04:45:16.239Z,3876
2018-05-09T04:45:42.373Z,3904
2018-05-09T04:46:08.509Z,3940
2018-05-09T04:46:34.654Z,3964
2018-05-09T04:47:00.791Z,3996
2018-05-09T04:47:26.983Z,4024
2018-05-09T04:47:53.124Z,4060
2018-05-09T04:48:19.263Z,4088
2018-05-09T04:48:45.406Z,4124
2018-05-09T04:49:11.596Z,4152
2018-05-09T04:49:37.719Z,4184
2018-05-09T04:50:03.859Z,4220
2018-05-09T04:50:30.000Z,4252
2018-05-09T04:50:56.133Z,4292
2018-05-09T04:51:22.283Z,4328
2018-05-09T04:51:48.418Z,4364
2018-05-09T04:52:14.559Z,4404
2018-05-09T04:52:40.698Z,4440
2018-05-09T04:53:06.834Z,4468
2018-05-09T04:53:32.972Z,4496
2018-05-09T04:53:59.111Z,4524
2018-05-09T04:54:25.247Z,4552
2018-05-09T04:54:51.384Z,4584
2018-05-09T04:55:17.531Z,4616
2018-05-09T04:55:43.785Z,4648
2018-05-09T04:56:09.820Z,4676
2018-05-09T04:56:35.964Z,4708
2018-05-09T04:57:02.130Z,4736
2018-05-09T04:57:28.277Z,4764
2018-05-09T04:57:54.416Z,4788
2018-05-09T04:58:20.593Z,4812
2018-05-09T04:58:46.730Z,4836
2018-05-09T04:59:12.897Z,4864
2018-05-09T04:59:39.041Z,4888
2018-05-09T05:00:05.183Z,4912
2018-05-09T05:00:31.319Z,4936
2018-05-09T05:00:57.461Z,4964
2018-05-09T05:01:23.609Z,4992
2018-05-09T05:01:49.765Z,5016
2018-05-09T05:02:15.913Z,5040
2018-05-09T05:02:42.056Z,5064
2018-05-09T05:03:08.197Z,5092
2018-05-09T05:03:34.339Z,5116
2018-05-09T05:04:00.479Z,5144
2018-05-09T05:04:26.620Z,5164
2018-05-09T05:04:52.784Z,5188
2018-05-09T05:05:18.921Z,5216
2018-05-09T05:05:45.059Z,5236
2018-05-09T05:06:11.193Z,5264
2018-05-09T05:06:37.330Z,5292
2018-05-09T05:07:03.538Z,5316
2018-05-09T05:07:29.660Z,5344
2018-05-09T05:07:55.828Z,5368
2018-05-09T05:08:21.963Z,5392
2018-05-09T05:08:48.133Z,5416
2018-05-09T05:09:14.269Z,5440
2018-05-09T05:09:40.424Z,5464
2018-05-09T05:10:06.565Z,5488
2018-05-09T05:10:32.728Z,5508
2018-05-09T05:10:58.891Z,5532
2018-05-09T05:11:25.031Z,5556
2018-05-09T05:11:51.171Z,5584
2018-05-09T05:12:17.335Z,5608
2018-05-09T05:12:43.472Z,5628
2018-05-09T05:13:09.631Z,5652
2018-05-09T05:13:35.777Z,5680
2018-05-09T05:14:01.948Z,5704
2018-05-09T05:14:28.084Z,5724
2018-05-09T05:14:54.217Z,5752
2018-05-09T05:15:20.357Z,5776
2018-05-09T05:15:46.554Z,5800
2018-05-09T05:16:12.634Z,5824
2018-05-09T05:16:38.828Z,5848
2018-05-09T05:17:04.969Z,5876
2018-05-09T05:17:31.104Z,5896
2018-05-09T05:17:57.243Z,5928
2018-05-09T05:18:23.395Z,5952
2018-05-09T05:18:49.525Z,5972
2018-05-09T05:19:15.663Z,6000
2018-05-09T05:19:41.828Z,6020
2018-05-09T05:20:07.961Z,6044
2018-05-09T05:20:34.102Z,6064
2018-05-09T05:21:00.248Z,6088
2018-05-09T05:21:26.407Z,6108
2018-05-09T05:21:52.544Z,6136
2018-05-09T05:22:18.680Z,6156
2018-05-09T05:22:44.819Z,6176
2018-05-09T05:23:10.957Z,6196
2018-05-09T05:23:37.098Z,6216
2018-05-09T05:24:03.238Z,6236
2018-05-09T05:24:29.379Z,6256
2018-05-09T05:24:55.536Z,6280
2018-05-09T05:25:21.675Z,6300
2018-05-09T05:25:47.833Z,6316
2018-05-09T05:26:13.968Z,6336
2018-05-09T05:26:40.109Z,6356
2018-05-09T05:27:06.247Z,6380
2018-05-09T05:27:32.382Z,6404
2018-05-09T05:27:58.521Z,6432
2018-05-09T05:28:24.687Z,6452
2018-05-09T05:28:50.861Z,6476
2018-05-09T05:29:16.999Z,6504
2018-05-09T05:29:43.139Z,6532
2018-05-09T05:30:09.277Z,6556
2018-05-09T05:30:35.423Z,6584
2018-05-09T05:31:01.556Z,6608
2018-05-09T05:31:27.699Z,6636
2018-05-09T05:31:53.839Z,6660
2018-05-09T05:32:19.998Z,6688
2018-05-09T05:32:46.203Z,6716
2018-05-09T05:33:12.306Z,6740
2018-05-09T05:33:38.450Z,6768
2018-05-09T05:34:04.614Z,6784
2018-05-09T05:34:30.754Z,6812
2018-05-09T05:34:56.896Z,6832
2018-05-09T05:35:23.033Z,6860
2018-05-09T05:35:49.192Z,6876
2018-05-09T05:36:15.406Z,6904
2018-05-09T05:36:41.504Z,6928
2018-05-09T05:37:07.667Z,6948
2018-05-09T05:37:33.827Z,6972
2018-05-09T05:37:59.966Z,6996
2018-05-09T05:38:26.107Z,7016
2018-05-09T05:38:52.354Z,7032
2018-05-09T05:39:18.465Z,7056
2018-05-09T05:39:44.687Z,7076
2018-05-09T05:40:10.944Z,7100
2018-05-09T05:40:37.192Z,7116
2018-05-09T05:41:03.357Z,7140
2018-05-09T05:41:29.560Z,7160
2018-05-09T05:41:55.694Z,7176
2018-05-09T05:42:21.823Z,7200
2018-05-09T05:42:47.990Z,7216
2018-05-09T05:43:14.137Z,7228
2018-05-09T05:43:40.298Z,7248
2018-05-09T05:44:06.437Z,7268
2018-05-09T05:44:32.591Z,7280
2018-05-09T05:44:58.878Z,7300
2018-05-09T05:45:25.008Z,7312
2018-05-09T05:45:51.075Z,7328
2018-05-09T05:46:17.243Z,7348
2018-05-09T05:46:43.382Z,7364
2018-05-09T05:47:09.523Z,7384
2018-05-09T05:47:35.649Z,7404
2018-05-09T05:48:01.797Z,7420
2018-05-09T05:48:27.936Z,7444
2018-05-09T05:48:54.100Z,7464
2018-05-09T05:49:20.250Z,7484
2018-05-09T05:49:46.388Z,7500
2018-05-09T05:50:12.519Z,7524
2018-05-09T05:50:38.669Z,7532
2018-05-09T05:51:04.806Z,7556
2018-05-09T05:51:30.944Z,7572
2018-05-09T05:51:57.114Z,7592
2018-05-09T05:52:23.223Z,7608
2018-05-09T05:52:49.361Z,7624
2018-05-09T05:53:15.516Z,7648
2018-05-09T05:53:41.650Z,7660
2018-05-09T05:54:07.782Z,7684
2018-05-09T05:54:33.920Z,7700
2018-05-09T05:55:00.059Z,7720
2018-05-09T05:55:26.228Z,7740
2018-05-09T05:55:52.392Z,7756
2018-05-09T05:56:18.638Z,7776
2018-05-09T05:56:44.693Z,7792
2018-05-09T05:57:10.836Z,7816
2018-05-09T05:57:36.999Z,7836
2018-05-09T05:58:03.142Z,7856
2018-05-09T05:58:29.286Z,7872
2018-05-09T05:58:55.427Z,7892
2018-05-09T05:59:21.564Z,7912
2018-05-09T05:59:47.707Z,7932
2018-05-09T06:00:13.846Z,7952
2018-05-09T06:00:39.991Z,7972
2018-05-09T06:01:06.127Z,7984
2018-05-09T06:01:32.280Z,8004
2018-05-09T06:01:58.430Z,8020
2018-05-09T06:02:24.572Z,8044
2018-05-09T06:02:50.732Z,8056
2018-05-09T06:03:16.877Z,8068
2018-05-09T06:03:43.012Z,8088
2018-05-09T06:04:09.162Z,8108
2018-05-09T06:04:35.319Z,8128
2018-05-09T06:05:01.462Z,8148
2018-05-09T06:05:27.598Z,8164
2018-05-09T06:05:53.766Z,8188
2018-05-09T06:06:19.992Z,8208
2018-05-09T06:06:46.072Z,8232
2018-05-09T06:07:12.216Z,8248
2018-05-09T06:07:38.356Z,8268
2018-05-09T06:08:04.619Z,8288
2018-05-09T06:08:30.662Z,8308
2018-05-09T06:08:56.803Z,8332
2018-05-09T06:09:22.949Z,8348
2018-05-09T06:09:49.090Z,8372